Time;durP1;ratioP1;P1;durP2;ratioP2;P2;SDS_P1;SDS_P2;PMS_P1;PMS_P2;Temp;Humidity;BMP_temperature;BMP_pressure;BME280_temperature;BME280_humidity;BME280_pressure;Samples;Min_cycle;Max_cycle;Signal;HPM_P1;HPM_P2
2022/02/18 00:00:46;;;;;;;13.60;7.60;;;5.40;99.90;;;;;;4995678;28;20557;-76
2022/02/18 00:03:14;;;;;;;15.95;7.30;;;5.50;99.90;;;;;;5013306;28;20059;-77
2022/02/18 00:05:44;;;;;;;14.93;7.35;;;5.50;99.90;;;;;;4997278;28;20055;-78
2022/02/18 00:08:11;;;;;;;15.88;6.30;;;5.50;99.90;;;;;;5002358;28;20049;-75
2022/02/18 00:10:43;;;;;;;8.05;5.93;;;5.60;99.90;;;;;;4994816;28;20045;-75
2022/02/18 00:13:12;;;;;;;16.08;6.90;;;5.50;99.90;;;;;;5031715;28;20068;-78
2022/02/18 00:15:39;;;;;;;14.40;7.18;;;5.40;99.90;;;;;;4995378;28;20501;-76
2022/02/18 00:18:06;;;;;;;12.73;6.25;;;5.50;99.90;;;;;;5028373;28;20513;-74
2022/02/18 00:20:34;;;;;;;19.83;7.70;;;5.70;99.90;;;;;;5005315;28;20037;-75
2022/02/18 00:23:05;;;;;;;14.68;6.85;;;5.70;99.90;;;;;;5014968;28;20053;-73
2022/02/18 00:25:32;;;;;;;12.60;6.80;;;5.70;99.90;;;;;;5030432;28;20044;-74
2022/02/18 00:28:00;;;;;;;22.55;6.72;;;5.70;99.90;;;;;;5013075;28;20064;-75
2022/02/18 00:30:28;;;;;;;20.02;7.03;;;5.70;99.90;;;;;;5014079;28;20045;-75
2022/02/18 00:32:55;;;;;;;18.83;7.22;;;5.70;99.90;;;;;;5014526;28;20667;-74
2022/02/18 00:35:23;;;;;;;21.83;7.70;;;5.70;99.90;;;;;;5006839;28;20061;-75
2022/02/18 00:37:52;;;;;;;21.15;7.32;;;5.70;99.90;;;;;;5014034;28;20561;-74
2022/02/18 00:40:19;;;;;;;19.65;7.05;;;5.70;99.90;;;;;;5030837;28;20052;-75
2022/02/18 00:42:47;;;;;;;20.77;7.88;;;5.70;99.90;;;;;;5026435;28;20131;-75
2022/02/18 00:45:15;;;;;;;18.15;6.40;;;5.70;99.90;;;;;;5003072;28;20083;-74
2022/02/18 00:47:43;;;;;;;16.42;6.32;;;5.70;99.90;;;;;;5017919;28;20041;-77
2022/02/18 00:50:11;;;;;;;11.88;6.50;;;5.60;99.90;;;;;;5032307;28;20061;-78
2022/02/18 00:52:38;;;;;;;24.48;7.07;;;5.60;99.90;;;;;;5014800;28;20053;-76
2022/02/18 00:55:05;;;;;;;20.35;7.45;;;5.50;99.90;;;;;;4994827;28;20041;-75
2022/02/18 00:57:34;;;;;;;29.10;8.63;;;5.50;99.90;;;;;;4993648;28;20048;-78
2022/02/18 01:00:04;;;;;;;18.98;7.55;;;5.50;99.90;;;;;;4995596;28;20049;-75
2022/02/18 01:02:31;;;;;;;24.98;8.25;;;5.50;99.90;;;;;;4996834;28;20236;-76
2022/02/18 01:04:58;;;;;;;19.80;8.05;;;5.50;99.90;;;;;;4993686;28;20061;-75
2022/02/18 01:07:25;;;;;;;34.35;9.45;;;5.40;99.90;;;;;;4994178;28;20537;-74
2022/02/18 01:09:55;;;;;;;20.92;7.95;;;5.40;99.90;;;;;;5011828;28;20064;-75
2022/02/18 01:12:22;;;;;;;22.70;9.18;;;5.40;99.90;;;;;;5016084;28;20041;-75
2022/02/18 01:14:50;;;;;;;23.00;9.07;;;5.50;99.90;;;;;;5031610;28;20041;-74
2022/02/18 01:17:17;;;;;;;22.95;9.73;;;5.40;99.90;;;;;;5018266;28;21070;-75
2022/02/18 01:19:44;;;;;;;27.95;8.98;;;5.40;99.90;;;;;;4996394;28;20127;-75
2022/02/18 01:22:11;;;;;;;23.40;9.07;;;5.40;99.90;;;;;;4996360;28;20071;-76
2022/02/18 01:24:38;;;;;;;25.48;9.40;;;5.40;99.90;;;;;;5013371;28;20072;-74
2022/02/18 01:27:07;;;;;;;20.45;9.77;;;5.30;99.90;;;;;;5010440;28;20131;-77
2022/02/18 01:29:39;;;;;;;35.17;10.73;;;5.40;99.90;;;;;;5013778;28;20107;-76
2022/02/18 01:32:11;;;;;;;23.02;10.32;;;5.40;99.90;;;;;;5011807;28;20072;-74
2022/02/18 01:34:39;;;;;;;18.60;8.80;;;5.40;99.90;;;;;;5030807;28;20052;-76
2022/02/18 01:37:07;;;;;;;24.90;9.93;;;5.40;99.90;;;;;;5017443;28;20051;-77
2022/02/18 01:39:35;;;;;;;18.80;8.90;;;5.50;99.90;;;;;;5034436;28;20106;-75
2022/02/18 01:42:03;;;;;;;20.52;8.85;;;5.50;99.90;;;;;;5022694;28;20743;-78
2022/02/18 01:44:37;;;;;;;25.25;10.02;;;5.50;99.90;;;;;;5018000;28;20048;-75
2022/02/18 01:47:15;;;;;;;25.15;10.23;;;5.60;99.90;;;;;;5048530;28;20048;-75
2022/02/18 01:49:43;;;;;;;20.73;9.25;;;5.60;99.90;;;;;;5035656;28;20045;-77
2022/02/18 01:52:13;;;;;;;28.48;10.38;;;5.60;99.90;;;;;;5017294;28;20186;-74
2022/02/18 01:54:40;;;;;;;23.25;10.13;;;5.60;99.90;;;;;;5015796;28;20548;-75
2022/02/18 01:57:07;;;;;;;32.90;10.00;;;5.60;99.90;;;;;;5013518;28;20064;-77
2022/02/18 01:59:36;;;;;;;25.30;9.32;;;5.60;99.90;;;;;;5009129;28;20684;-76
2022/02/18 02:02:03;;;;;;;24.33;10.15;;;5.60;99.90;;;;;;5000416;28;20059;-76
2022/02/18 02:04:31;;;;;;;29.10;11.60;;;5.60;99.90;;;;;;5001537;28;20124;-76
2022/02/18 02:07:02;;;;;;;28.48;10.95;;;5.70;99.90;;;;;;5017174;28;20112;-77
2022/02/18 02:09:29;;;;;;;22.45;9.82;;;5.60;99.90;;;;;;5012565;28;20080;-76
2022/02/18 02:11:56;;;;;;;25.65;9.38;;;5.60;99.90;;;;;;5023917;28;20040;-77
2022/02/18 02:14:24;;;;;;;19.75;8.50;;;5.60;99.90;;;;;;5017580;28;20281;-76
2022/02/18 02:16:51;;;;;;;27.65;10.85;;;5.60;99.90;;;;;;5017305;28;20120;-76
2022/02/18 02:19:19;;;;;;;29.92;10.38;;;5.60;99.90;;;;;;5016123;28;20055;-75
2022/02/18 02:21:50;;;;;;;33.97;10.05;;;5.60;99.90;;;;;;5017408;28;20060;-76
2022/02/18 02:24:18;;;;;;;26.55;10.18;;;5.60;99.90;;;;;;5017244;28;20057;-77
2022/02/18 02:26:44;;;;;;;27.15;9.65;;;5.50;99.90;;;;;;5014663;28;20053;-77
2022/02/18 02:29:13;;;;;;;33.03;9.38;;;5.50;99.90;;;;;;5001572;28;20213;-76
2022/02/18 02:31:44;;;;;;;27.45;8.77;;;5.40;99.90;;;;;;5016254;28;20040;-77
2022/02/18 02:34:11;;;;;;;30.13;9.68;;;5.40;99.90;;;;;;5013333;28;20052;-74
2022/02/18 02:36:40;;;;;;;28.67;8.45;;;5.40;99.90;;;;;;5023530;28;20045;-75
2022/02/18 02:39:07;;;;;;;21.30;7.70;;;5.40;99.90;;;;;;5006688;28;20053;-76
2022/02/18 02:41:34;;;;;;;27.60;9.80;;;5.30;99.90;;;;;;5023588;28;20421;-77
2022/02/18 02:44:02;;;;;;;24.77;8.82;;;5.40;99.90;;;;;;5017090;28;20439;-76
2022/02/18 02:46:30;;;;;;;27.02;8.52;;;5.40;99.90;;;;;;5010515;28;20532;-77
2022/02/18 02:48:57;;;;;;;35.72;9.15;;;5.30;99.90;;;;;;5013798;28;20063;-77
2022/02/18 02:51:26;;;;;;;33.28;8.77;;;5.30;99.90;;;;;;4999720;28;20471;-74
2022/02/18 02:53:53;;;;;;;28.90;9.30;;;5.20;99.90;;;;;;5016705;28;20452;-76
2022/02/18 02:56:20;;;;;;;23.83;8.55;;;5.30;99.90;;;;;;5006611;28;20845;-76
2022/02/18 02:58:49;;;;;;;24.02;7.72;;;5.30;99.90;;;;;;4999399;28;20137;-75
2022/02/18 03:01:23;;;;;;;29.92;10.50;;;5.30;99.90;;;;;;5017398;28;20292;-76
2022/02/18 03:03:50;;;;;;;22.10;9.65;;;5.30;99.90;;;;;;5016814;28;20057;-75
2022/02/18 03:06:18;;;;;;;36.40;10.35;;;5.30;99.90;;;;;;5032905;28;20301;-75
2022/02/18 03:08:45;;;;;;;33.13;8.23;;;5.30;99.90;;;;;;5009350;28;20374;-75
2022/02/18 03:11:22;;;;;;;23.80;8.38;;;5.20;99.90;;;;;;5014690;28;20044;-75
2022/02/18 03:14:25;;;;;;;28.65;9.05;;;5.30;99.90;;;;;;5030375;28;20057;-77
2022/02/18 03:17:15;;;;;;;29.92;8.93;;;5.20;99.90;;;;;;5022594;28;20529;-76
2022/02/18 03:19:42;;;;;;;34.03;8.00;;;5.20;99.90;;;;;;4999576;28;20075;-75
2022/02/18 03:22:09;;;;;;;27.60;8.32;;;5.20;99.90;;;;;;5015338;28;20080;-76
2022/02/18 03:24:36;;;;;;;29.65;9.75;;;5.30;99.90;;;;;;4997747;28;20306;-74
2022/02/18 03:27:03;;;;;;;32.83;8.40;;;5.30;99.90;;;;;;5025444;28;20053;-75
2022/02/18 03:29:36;;;;;;;25.35;8.85;;;5.30;99.90;;;;;;5028609;28;20088;-75
2022/02/18 03:32:09;;;;;;;25.63;8.70;;;5.40;99.90;;;;;;5027910;28;20045;-75
2022/02/18 03:34:36;;;;;;;26.52;8.82;;;5.40;99.90;;;;;;5010088;28;20041;-76
2022/02/18 03:37:06;;;;;;;31.48;8.10;;;5.40;99.90;;;;;;5012914;28;20106;-75
2022/02/18 03:39:33;;;;;;;29.08;8.85;;;5.40;99.90;;;;;;5009940;28;20611;-75
2022/02/18 03:42:01;;;;;;;26.80;8.20;;;5.40;99.90;;;;;;5023439;28;20094;-75
2022/02/18 03:44:31;;;;;;;30.33;9.15;;;5.40;99.90;;;;;;5018383;28;20072;-77
2022/02/18 03:47:03;;;;;;;30.55;8.68;;;5.40;99.90;;;;;;5016165;28;20102;-74
2022/02/18 03:49:31;;;;;;;27.40;7.72;;;5.40;99.90;;;;;;4987824;28;20788;-75
2022/02/18 03:51:59;;;;;;;22.08;7.38;;;5.40;99.90;;;;;;5013649;28;20073;-77
2022/02/18 03:54:26;;;;;;;29.73;7.63;;;5.40;99.90;;;;;;4997304;28;20048;-74
2022/02/18 03:56:54;;;;;;;23.65;8.93;;;5.40;99.90;;;;;;5015131;28;20475;-76
2022/02/18 03:59:23;;;;;;;41.40;8.18;;;5.40;99.90;;;;;;4994545;28;20053;-75
2022/02/18 04:01:51;;;;;;;32.35;6.95;;;5.50;99.90;;;;;;5013889;28;20064;-76
2022/02/18 04:04:19;;;;;;;28.17;6.45;;;5.50;99.90;;;;;;5014705;28;20048;-76
2022/02/18 04:06:50;;;;;;;20.85;7.30;;;5.40;99.90;;;;;;5013183;28;20049;-75
2022/02/18 04:09:26;;;;;;;26.35;6.55;;;5.40;99.90;;;;;;5011468;28;20710;-74
2022/02/18 04:11:58;;;;;;;26.45;5.93;;;5.40;99.90;;;;;;5021657;28;20049;-75
2022/02/18 04:14:27;;;;;;;31.23;7.60;;;5.40;99.90;;;;;;5033819;28;20043;-75
2022/02/18 04:17:07;;;;;;;34.50;7.55;;;5.40;99.90;;;;;;5018648;28;20044;-74
2022/02/18 04:19:38;;;;;;;26.00;6.97;;;5.30;99.90;;;;;;5002751;28;20055;-75
2022/02/18 04:22:34;;;;;;;28.02;6.68;;;5.30;99.90;;;;;;4997711;28;20057;-74
2022/02/18 04:25:02;;;;;;;21.92;6.80;;;5.30;99.90;;;;;;5030949;28;20049;-75
2022/02/18 04:27:29;;;;;;;23.13;6.45;;;5.30;99.90;;;;;;5030251;28;20063;-73
2022/02/18 04:29:56;;;;;;;27.38;7.15;;;5.30;99.90;;;;;;4996850;28;20060;-74
2022/02/18 04:32:22;;;;;;;24.15;6.25;;;5.40;99.90;;;;;;5013766;28;20049;-75
2022/02/18 04:34:49;;;;;;;23.02;5.90;;;5.40;99.90;;;;;;5012247;28;20164;-75
2022/02/18 04:37:16;;;;;;;23.05;7.00;;;5.40;99.90;;;;;;5012561;28;20140;-75
2022/02/18 04:39:43;;;;;;;26.77;6.40;;;5.40;99.90;;;;;;5010654;28;20045;-75
2022/02/18 04:42:10;;;;;;;22.17;6.75;;;5.50;99.90;;;;;;5015320;28;20045;-75
2022/02/18 04:44:37;;;;;;;18.33;6.32;;;5.50;99.90;;;;;;5032675;28;20048;-74
2022/02/18 04:47:03;;;;;;;24.02;6.05;;;5.50;99.90;;;;;;5048578;28;20048;-73
2022/02/18 04:49:30;;;;;;;18.55;6.07;;;5.60;99.90;;;;;;5030544;28;20072;-74
2022/02/18 04:52:11;;;;;;;27.15;6.78;;;5.60;99.90;;;;;;5015122;28;20045;-74
2022/02/18 04:54:38;;;;;;;19.30;6.68;;;5.60;99.90;;;;;;5012861;28;20053;-74
2022/02/18 04:57:05;;;;;;;20.05;6.63;;;5.60;99.90;;;;;;5031891;28;20041;-74
2022/02/18 04:59:31;;;;;;;22.00;6.30;;;5.70;99.90;;;;;;4998485;28;20047;-74
2022/02/18 05:01:58;;;;;;;18.08;6.80;;;5.70;99.90;;;;;;4995895;28;20053;-75
2022/02/18 05:04:25;;;;;;;18.02;6.55;;;5.70;99.90;;;;;;4995768;28;20049;-74
2022/02/18 05:06:52;;;;;;;19.73;7.38;;;5.70;99.90;;;;;;5010986;28;20050;-75
2022/02/18 05:09:19;;;;;;;22.98;8.60;;;5.70;99.90;;;;;;5025667;28;20048;-74
2022/02/18 05:11:46;;;;;;;26.77;7.57;;;5.60;99.90;;;;;;5032786;28;20036;-74
2022/02/18 05:14:13;;;;;;;20.52;8.43;;;5.60;99.90;;;;;;5038256;28;20044;-74
2022/02/18 05:16:40;;;;;;;25.92;9.07;;;5.60;99.90;;;;;;5038416;28;20132;-74
2022/02/18 05:19:09;;;;;;;25.30;9.57;;;5.60;99.90;;;;;;5035821;28;20114;-74
2022/02/18 05:21:37;;;;;;;26.33;8.68;;;5.60;99.90;;;;;;5009827;28;20288;-74
2022/02/18 05:24:05;;;;;;;25.05;8.65;;;5.60;99.90;;;;;;5019632;28;20137;-75
2022/02/18 05:26:33;;;;;;;45.78;10.10;;;5.50;99.90;;;;;;5015872;28;20053;-74
2022/02/18 05:28:59;;;;;;;25.52;9.10;;;5.60;99.90;;;;;;5018966;28;20426;-75
2022/02/18 05:31:26;;;;;;;19.30;8.88;;;5.50;99.90;;;;;;5024211;28;20053;-75
2022/02/18 05:33:53;;;;;;;25.67;8.45;;;5.60;99.90;;;;;;5038437;28;20059;-74
2022/02/18 05:36:20;;;;;;;27.10;8.43;;;5.60;99.90;;;;;;5018483;28;20045;-75
2022/02/18 05:38:47;;;;;;;23.95;8.52;;;5.60;99.90;;;;;;5019751;28;20577;-74
2022/02/18 05:41:14;;;;;;;22.05;9.00;;;5.60;99.90;;;;;;5018718;28;20654;-74
2022/02/18 05:43:41;;;;;;;25.60;9.55;;;5.60;99.90;;;;;;5033195;28;20056;-75
2022/02/18 05:46:08;;;;;;;26.10;9.15;;;5.60;99.90;;;;;;5033753;28;20045;-75
2022/02/18 05:48:36;;;;;;;18.50;8.85;;;5.60;99.90;;;;;;5035951;28;20724;-75
2022/02/18 05:51:04;;;;;;;31.70;10.20;;;5.50;99.90;;;;;;5037138;28;20056;-74
2022/02/18 05:53:33;;;;;;;27.05;9.70;;;5.50;99.90;;;;;;5018517;28;20077;-74
2022/02/18 05:56:02;;;;;;;26.50;10.20;;;5.50;99.90;;;;;;4998611;28;20543;-75
2022/02/18 05:58:31;;;;;;;27.40;10.02;;;5.50;99.90;;;;;;5016891;28;20061;-74
2022/02/18 06:00:58;;;;;;;29.40;10.63;;;5.60;99.90;;;;;;4999416;28;20060;-74
2022/02/18 06:03:26;;;;;;;22.88;10.20;;;5.60;99.90;;;;;;5012966;28;20140;-74
2022/02/18 06:05:52;;;;;;;27.13;10.20;;;5.60;99.90;;;;;;5020037;28;20136;-74
2022/02/18 06:08:19;;;;;;;26.33;10.77;;;5.70;99.90;;;;;;5036677;28;20124;-74
2022/02/18 06:10:46;;;;;;;28.05;10.80;;;5.70;99.90;;;;;;5033600;28;20332;-74
2022/02/18 06:13:13;;;;;;;21.88;10.68;;;5.70;99.90;;;;;;5039715;28;20142;-74
2022/02/18 06:15:40;;;;;;;31.33;10.65;;;5.70;99.90;;;;;;5033112;28;20045;-75
2022/02/18 06:18:06;;;;;;;23.75;9.68;;;5.70;99.90;;;;;;5019464;28;20051;-74
2022/02/18 06:20:33;;;;;;;24.17;10.30;;;5.70;99.90;;;;;;5036647;28;20045;-74
2022/02/18 06:23:00;;;;;;;24.55;9.32;;;5.70;99.90;;;;;;5032667;28;20051;-74
2022/02/18 06:25:27;;;;;;;27.00;9.98;;;5.70;99.90;;;;;;5033922;28;20300;-74
2022/02/18 06:28:08;;;;;;;31.75;10.40;;;5.70;99.90;;;;;;5016062;28;20123;-74
2022/02/18 06:30:37;;;;;;;29.85;11.38;;;5.70;99.90;;;;;;5033621;28;20049;-73
2022/02/18 06:33:06;;;;;;;28.38;11.38;;;5.70;99.90;;;;;;5033159;28;20045;-74
2022/02/18 06:35:39;;;;;;;27.52;10.63;;;5.70;99.90;;;;;;4996941;28;20068;-74
2022/02/18 06:38:10;;;;;;;21.05;10.45;;;5.70;99.90;;;;;;4998398;28;20068;-75
2022/02/18 06:40:38;;;;;;;23.45;9.88;;;5.70;99.90;;;;;;5027675;28;20041;-74
2022/02/18 06:43:04;;;;;;;22.65;9.98;;;5.80;99.90;;;;;;5021140;28;20095;-75
2022/02/18 06:45:31;;;;;;;23.67;10.55;;;5.70;99.90;;;;;;5019456;28;20073;-74
2022/02/18 06:47:58;;;;;;;24.08;10.38;;;5.70;99.90;;;;;;5031857;28;20857;-74
2022/02/18 06:50:25;;;;;;;22.30;10.02;;;5.70;99.90;;;;;;5000504;28;20840;-74
2022/02/18 06:52:52;;;;;;;22.15;8.85;;;5.70;99.90;;;;;;5003987;28;20052;-72
2022/02/18 06:55:24;;;;;;;22.50;9.30;;;5.60;99.90;;;;;;5010390;28;20041;-74
2022/02/18 06:57:54;;;;;;;23.08;9.10;;;5.60;99.90;;;;;;5015432;28;20638;-75
2022/02/18 07:00:22;;;;;;;21.85;8.48;;;5.50;99.90;;;;;;5032041;28;20068;-74
2022/02/18 07:02:49;;;;;;;21.27;8.27;;;5.60;99.90;;;;;;4998643;28;20079;-74
2022/02/18 07:05:16;;;;;;;20.20;8.50;;;5.60;99.90;;;;;;4994438;28;20057;-77
2022/02/18 07:07:44;;;;;;;24.83;9.90;;;5.60;99.90;;;;;;5013275;28;20253;-74
2022/02/18 07:10:12;;;;;;;21.48;9.18;;;5.60;99.90;;;;;;4994969;28;20688;-74
2022/02/18 07:12:40;;;;;;;23.58;9.07;;;5.60;99.90;;;;;;5027457;28;20076;-74
2022/02/18 07:15:08;;;;;;;19.35;9.40;;;5.60;99.90;;;;;;5035057;28;20062;-74
2022/02/18 07:17:36;;;;;;;17.83;7.80;;;5.70;99.90;;;;;;5027232;28;20111;-74
2022/02/18 07:20:06;;;;;;;16.13;9.02;;;5.70;99.90;;;;;;5012120;28;20136;-74
2022/02/18 07:22:36;;;;;;;21.98;8.55;;;5.70;99.90;;;;;;5032051;28;20041;-75
2022/02/18 07:25:11;;;;;;;24.83;8.38;;;5.60;99.90;;;;;;5024102;28;20049;-74
2022/02/18 07:27:38;;;;;;;16.20;8.35;;;5.60;99.90;;;;;;5026659;28;20546;-75
2022/02/18 07:30:06;;;;;;;21.13;8.15;;;5.60;99.90;;;;;;5026043;28;20057;-74
2022/02/18 07:32:33;;;;;;;22.17;8.10;;;5.60;99.90;;;;;;5015017;28;20064;-74
2022/02/18 07:35:01;;;;;;;23.65;9.95;;;5.60;99.90;;;;;;4994603;28;20057;-74
2022/02/18 07:37:27;;;;;;;23.38;8.80;;;5.60;99.90;;;;;;5016169;28;20099;-73
2022/02/18 07:39:54;;;;;;;29.20;8.70;;;5.60;99.90;;;;;;5028768;28;20044;-75
2022/02/18 07:42:21;;;;;;;18.20;8.10;;;5.60;99.90;;;;;;5020331;28;20033;-75
2022/02/18 07:44:49;;;;;;;19.95;7.32;;;5.70;99.90;;;;;;5017803;28;20076;-76
2022/02/18 07:47:16;;;;;;;22.05;6.97;;;5.70;99.90;;;;;;5012340;28;20048;-73
2022/02/18 07:49:50;;;;;;;24.33;8.02;;;5.70;99.90;;;;;;5034850;28;20130;-75
2022/02/18 07:52:20;;;;;;;22.63;7.28;;;5.80;99.90;;;;;;5016706;28;20068;-74
2022/02/18 07:54:48;;;;;;;17.48;7.10;;;5.80;99.90;;;;;;5032253;28;20060;-75
2022/02/18 07:57:15;;;;;;;16.73;7.10;;;5.80;99.90;;;;;;5021220;28;20163;-74
2022/02/18 07:59:41;;;;;;;30.15;8.13;;;5.90;99.90;;;;;;5014290;28;20069;-75
2022/02/18 08:02:08;;;;;;;21.67;6.70;;;5.90;99.90;;;;;;5012394;28;20553;-75
2022/02/18 08:04:35;;;;;;;30.45;8.57;;;5.80;99.90;;;;;;4997146;28;20053;-76
2022/02/18 08:07:09;;;;;;;24.27;6.65;;;5.80;99.90;;;;;;4997514;28;20229;-75
2022/02/18 08:09:36;;;;;;;23.25;7.07;;;5.80;99.90;;;;;;5029189;28;20106;-75
2022/02/18 08:12:03;;;;;;;21.60;7.20;;;5.80;99.90;;;;;;5018206;28;20198;-75
2022/02/18 08:14:32;;;;;;;20.92;7.30;;;5.80;99.90;;;;;;5046695;28;20049;-75
2022/02/18 08:16:59;;;;;;;27.77;7.45;;;5.80;99.90;;;;;;5014472;28;20053;-75
2022/02/18 08:19:26;;;;;;;25.58;7.13;;;5.80;99.90;;;;;;5016484;28;20110;-76
2022/02/18 08:21:53;;;;;;;22.08;6.22;;;5.70;99.90;;;;;;5000228;28;20045;-74
2022/02/18 08:24:20;;;;;;;24.40;5.97;;;5.70;99.90;;;;;;5018373;28;20059;-77
2022/02/18 08:26:48;;;;;;;23.85;6.55;;;5.70;99.90;;;;;;5000689;28;20462;-74
2022/02/18 08:29:16;;;;;;;19.65;5.45;;;5.70;99.90;;;;;;5018209;28;20056;-77
2022/02/18 08:31:44;;;;;;;27.88;6.05;;;5.70;99.90;;;;;;5034662;28;20163;-78
2022/02/18 08:34:11;;;;;;;18.85;6.97;;;5.70;99.90;;;;;;5039185;28;20052;-77
2022/02/18 08:36:37;;;;;;;16.77;5.68;;;5.70;99.90;;;;;;5001588;28;20056;-75
2022/02/18 08:39:07;;;;;;;18.50;5.20;;;5.70;99.90;;;;;;4999594;28;20037;-75
2022/02/18 08:41:35;;;;;;;27.83;6.22;;;5.70;99.90;;;;;;5030115;28;20044;-76
2022/02/18 08:44:02;;;;;;;20.75;5.03;;;5.70;99.90;;;;;;5039588;28;20041;-74
2022/02/18 08:46:31;;;;;;;25.45;5.55;;;5.70;99.90;;;;;;5036845;28;20053;-75
2022/02/18 08:48:58;;;;;;;19.80;6.28;;;5.70;99.90;;;;;;5034196;28;20117;-76
2022/02/18 08:51:26;;;;;;;24.35;5.35;;;5.70;99.90;;;;;;5011089;28;20048;-75
2022/02/18 08:53:53;;;;;;;23.63;5.28;;;5.70;99.90;;;;;;4997999;28;20060;-75
2022/02/18 08:56:20;;;;;;;24.40;5.55;;;5.70;99.90;;;;;;4998266;28;20061;-73
2022/02/18 08:58:47;;;;;;;20.05;4.15;;;5.70;99.90;;;;;;5011907;28;20055;-74
2022/02/18 09:01:15;;;;;;;14.50;5.47;;;5.70;99.90;;;;;;5015818;28;20087;-75
2022/02/18 09:03:43;;;;;;;21.67;6.45;;;5.70;99.90;;;;;;4987223;28;20597;-75
2022/02/18 09:06:10;;;;;;;26.92;5.57;;;5.70;99.90;;;;;;5002551;28;20173;-75
2022/02/18 09:08:37;;;;;;;17.65;5.30;;;5.70;99.90;;;;;;5001782;28;20451;-74
2022/02/18 09:11:04;;;;;;;18.00;4.45;;;5.70;99.90;;;;;;5018976;28;20152;-75
2022/02/18 09:13:32;;;;;;;19.13;5.15;;;5.70;99.90;;;;;;5041874;23;20455;-70
2022/02/18 09:15:58;;;;;;;21.33;7.35;;;5.70;99.90;;;;;;5013490;28;20051;-70
2022/02/18 09:18:39;;;;;;;27.02;5.22;;;5.70;99.90;;;;;;5017557;28;20111;-70
2022/02/18 09:21:07;;;;;;;19.67;5.60;;;5.70;99.90;;;;;;5018514;28;20095;-70
2022/02/18 09:23:53;;;;;;;22.15;4.78;;;5.70;99.90;;;;;;5021233;28;20057;-70
2022/02/18 09:26:23;;;;;;;14.00;4.43;;;5.80;99.90;;;;;;5019681;28;20069;-70
2022/02/18 09:28:52;;;;;;;20.23;4.22;;;5.80;99.90;;;;;;5019760;28;20539;-70
2022/02/18 09:31:19;;;;;;;21.38;8.85;;;5.80;99.90;;;;;;5018590;28;20042;-70
2022/02/18 09:33:48;;;;;;;23.92;4.85;;;5.90;99.90;;;;;;5002437;28;20072;-70
2022/02/18 09:36:15;;;;;;;26.55;5.65;;;5.90;99.90;;;;;;5000751;28;20061;-70
2022/02/18 09:38:42;;;;;;;20.92;5.85;;;6.00;99.90;;;;;;5017822;28;20044;-70
2022/02/18 09:41:09;;;;;;;19.83;5.03;;;6.00;99.90;;;;;;5021838;28;20052;-70
2022/02/18 09:43:39;;;;;;;19.77;4.75;;;6.10;99.90;;;;;;5019441;28;20460;-70
2022/02/18 09:46:07;;;;;;;13.98;4.70;;;6.10;99.90;;;;;;5018710;28;20080;-70
2022/02/18 09:48:35;;;;;;;16.98;6.20;;;6.10;99.90;;;;;;5013781;28;20130;-70
2022/02/18 09:51:02;;;;;;;16.15;4.07;;;6.20;99.90;;;;;;5005430;28;20091;-70
2022/02/18 09:53:29;;;;;;;12.85;4.38;;;6.20;99.90;;;;;;5018558;28;20365;-70
2022/02/18 09:55:57;;;;;;;16.98;4.60;;;6.20;99.90;;;;;;4999595;28;20080;-69
2022/02/18 09:58:24;;;;;;;18.58;4.55;;;6.20;99.90;;;;;;5023658;28;20059;-70
2022/02/18 10:00:52;;;;;;;19.65;5.35;;;6.20;99.90;;;;;;5022528;28;20678;-70
2022/02/18 10:03:21;;;;;;;13.10;3.65;;;6.20;99.90;;;;;;5025342;28;20728;-70
2022/02/18 10:06:48;;;;;;;14.88;4.30;;;6.20;99.90;;;;;;5025359;28;20053;-71
2022/02/18 10:09:15;;;;;;;9.15;3.35;;;6.20;99.90;;;;;;5019193;28;20061;-70
2022/02/18 10:11:56;;;;;;;8.20;3.10;;;6.20;99.90;;;;;;5024729;28;20077;-70
2022/02/18 10:14:22;;;;;;;14.85;3.20;;;6.20;99.90;;;;;;5023662;28;20468;-70
2022/02/18 10:16:49;;;;;;;15.05;3.30;;;6.20;99.90;;;;;;5019043;28;20084;-70
2022/02/18 10:19:16;;;;;;;13.30;4.15;;;6.20;99.90;;;;;;5024752;28;20087;-70
2022/02/18 10:21:44;;;;;;;20.15;3.60;;;6.20;99.90;;;;;;4988119;28;20073;-70
2022/02/18 10:24:16;;;;;;;14.98;4.00;;;6.30;99.90;;;;;;5021344;28;20346;-70
2022/02/18 10:26:48;;;;;;;20.23;4.80;;;6.30;99.90;;;;;;5022425;28;20080;-70
2022/02/18 10:29:25;;;;;;;13.30;3.67;;;6.30;99.90;;;;;;5005512;28;20111;-70
2022/02/18 10:32:17;;;;;;;13.10;2.95;;;6.30;99.90;;;;;;5022030;28;20072;-70
2022/02/18 10:35:00;;;;;;;8.02;3.40;;;6.30;99.90;;;;;;5022759;28;20095;-70
2022/02/18 11:14:46;;;;;;;5.47;2.40;;;7.00;99.90;;;;;;5072569;27;20417;-70
2022/02/18 11:17:14;;;;;;;9.27;2.30;;;7.10;99.90;;;;;;5109370;27;20036;-70
2022/02/18 11:19:45;;;;;;;8.13;3.13;;;7.20;99.90;;;;;;5117179;27;20048;-70
2022/02/18 11:22:14;;;;;;;6.85;2.42;;;7.30;99.90;;;;;;5117784;27;20069;-70
2022/02/18 11:24:45;;;;;;;7.20;3.17;;;7.50;99.90;;;;;;5117872;27;20093;-70
2022/02/18 11:27:13;;;;;;;6.68;1.65;;;7.70;99.90;;;;;;5118390;27;20043;-70
2022/02/18 11:29:40;;;;;;;4.72;1.65;;;7.90;99.90;;;;;;5119128;27;20684;-70
2022/02/18 11:32:22;;;;;;;4.95;1.70;;;8.00;99.90;;;;;;5117170;27;20063;-70
2022/02/18 11:35:21;;;;;;;5.13;2.08;;;8.20;99.90;;;;;;5119001;27;20100;-70
2022/02/18 11:38:15;;;;;;;8.38;1.95;;;8.30;99.90;;;;;;5120705;27;20043;-70
2022/02/18 11:40:54;;;;;;;3.40;1.48;;;8.50;99.90;;;;;;5118164;27;20076;-70
2022/02/18 11:43:23;;;;;;;6.45;1.35;;;8.80;99.90;;;;;;5120247;27;20141;-70
2022/02/18 11:45:58;;;;;;;5.10;2.30;;;9.00;99.90;;;;;;5120709;27;20569;-70
2022/02/18 11:48:42;;;;;;;4.55;2.40;;;9.10;99.90;;;;;;5122052;27;20040;-69
2022/02/18 11:51:18;;;;;;;4.45;1.70;;;9.30;99.90;;;;;;5115932;27;20512;-70
2022/02/18 11:53:49;;;;;;;3.10;1.73;;;9.40;99.90;;;;;;5115755;27;20040;-69
2022/02/18 11:56:49;;;;;;;3.88;1.88;;;9.50;99.90;;;;;;5112775;27;20039;-69
2022/02/18 11:59:16;;;;;;;6.78;3.80;;;9.60;99.90;;;;;;5115296;27;20043;-70
2022/02/18 12:01:57;;;;;;;8.52;4.47;;;9.70;99.90;;;;;;5115186;27;20073;-70
2022/02/18 12:04:25;;;;;;;2.20;2.10;;;9.80;99.90;;;;;;5115748;27;20043;-69
2022/02/18 12:07:15;;;;;;;2.90;2.63;;;9.90;99.90;;;;;;5114085;27;20706;-70
2022/02/18 12:09:47;;;;;;;3.83;3.15;;;10.00;99.90;;;;;;5112970;27;20116;-70
2022/02/18 12:12:20;;;;;;;3.42;3.10;;;10.10;99.90;;;;;;5113192;27;20039;-69
2022/02/18 12:14:54;;;;;;;2.67;2.58;;;10.10;99.90;;;;;;5115679;27;20147;-70
2022/02/18 12:17:23;;;;;;;4.20;3.42;;;10.20;99.90;;;;;;5116241;27;20039;-69
2022/02/18 12:19:51;;;;;;;3.72;3.53;;;10.30;99.90;;;;;;5116156;27;20120;-70
2022/02/18 12:22:37;;;;;;;3.70;3.40;;;10.40;99.90;;;;;;5113608;27;20108;-69
2022/02/18 12:25:21;;;;;;;4.25;3.95;;;10.30;99.90;;;;;;5106234;27;20051;-70
2022/02/18 12:27:49;;;;;;;3.13;2.92;;;10.40;99.90;;;;;;5100915;27;20054;-70
2022/02/18 12:30:40;;;;;;;3.92;3.10;;;10.40;99.90;;;;;;5100168;27;20036;-70
2022/02/18 12:33:08;;;;;;;3.42;3.28;;;10.40;99.90;;;;;;5100187;27;20047;-70
2022/02/18 12:35:35;;;;;;;3.80;3.60;;;10.40;99.90;;;;;;5101718;27;20565;-70
2022/02/18 12:38:05;;;;;;;4.15;3.85;;;10.50;99.90;;;;;;5099734;28;20100;-70
2022/02/18 12:40:35;;;;;;;3.97;3.78;;;10.50;99.90;;;;;;5099330;27;20409;-69
2022/02/18 12:43:17;;;;;;;4.03;3.80;;;10.50;99.90;;;;;;5097958;27;20051;-70
2022/02/18 12:45:48;;;;;;;3.42;3.10;;;10.50;99.90;;;;;;5100855;27;20072;-70
2022/02/18 12:48:32;;;;;;;3.55;3.35;;;10.50;99.90;;;;;;5100907;27;20658;-70
2022/02/18 12:51:00;;;;;;;4.25;4.00;;;10.60;99.90;;;;;;5101379;27;20051;-72
2022/02/18 12:53:28;;;;;;;3.58;3.38;;;10.60;99.90;;;;;;5101343;27;20096;-71
2022/02/18 12:55:55;;;;;;;4.00;3.80;;;10.70;99.90;;;;;;5099624;27;20067;-70
2022/02/18 12:58:22;;;;;;;4.10;3.90;;;10.80;99.90;;;;;;5101438;27;20040;-70
2022/02/18 13:00:49;;;;;;;4.68;4.47;;;10.90;99.90;;;;;;5101154;27;20112;-71
2022/02/18 13:03:16;;;;;;;4.72;4.53;;;10.90;99.90;;;;;;5100583;27;20063;-70
2022/02/18 13:05:43;;;;;;;5.57;5.28;;;10.90;99.90;;;;;;5097981;27;20047;-71
2022/02/18 13:08:22;;;;;;;5.30;5.00;;;11.00;99.90;;;;;;5109123;27;20251;-70
2022/02/18 13:10:54;;;;;;;5.72;5.25;;;11.00;99.90;;;;;;5105178;27;20043;-70
2022/02/18 13:13:25;;;;;;;5.15;4.95;;;11.10;99.90;;;;;;5107790;27;20426;-71
2022/02/18 13:15:56;;;;;;;5.30;5.10;;;11.10;99.90;;;;;;5100037;28;20217;-71
2022/02/18 13:18:24;;;;;;;5.57;5.38;;;11.20;99.90;;;;;;5102757;28;20318;-70
2022/02/18 13:20:53;;;;;;;5.15;4.75;;;11.20;99.90;;;;;;5101126;27;20075;-70
2022/02/18 13:23:24;;;;;;;4.80;4.50;;;11.30;99.90;;;;;;5101950;28;20044;-71
2022/02/18 13:25:59;;;;;;;4.90;4.50;;;11.30;99.90;;;;;;5100624;27;20040;-71
2022/02/18 13:28:27;;;;;;;5.05;4.75;;;11.40;99.90;;;;;;5101518;28;20048;-70
2022/02/18 13:30:56;;;;;;;4.70;4.40;;;11.40;99.90;;;;;;5098094;28;20130;-70
2022/02/18 13:33:30;;;;;;;4.50;4.30;;;11.40;99.90;;;;;;5102142;28;20047;-71
2022/02/18 13:35:59;;;;;;;3.80;3.60;;;11.40;99.90;;;;;;5098401;27;20066;-70